createdAt,value
2022-11-24T00:01:27.440Z,2.15
2022-11-24T00:04:00.604Z,2.50
2022-11-24T00:06:28.931Z,1.55
2022-11-24T00:08:56.513Z,1.70
2022-11-24T00:11:28.116Z,2.00
2022-11-24T00:13:55.383Z,2.03
2022-11-24T00:16:26.293Z,1.92
2022-11-24T00:18:55.766Z,2.10
2022-11-24T00:21:23.633Z,1.38
2022-11-24T00:23:51.178Z,2.22
2022-11-24T00:26:25.526Z,1.38
2022-11-24T00:28:54.494Z,2.42
2022-11-24T00:31:25.006Z,1.95
2022-11-24T00:33:54.965Z,1.77
2022-11-24T00:36:24.133Z,1.73
2022-11-24T00:39:00.929Z,2.17
2022-11-24T00:41:29.171Z,2.20
2022-11-24T00:43:57.655Z,1.60
2022-11-24T00:46:25.502Z,1.98
2022-11-24T00:48:53.701Z,1.80
2022-11-24T00:51:24.146Z,2.22
2022-11-24T00:53:50.980Z,1.92
2022-11-24T00:56:17.811Z,1.70
2022-11-24T00:58:44.783Z,1.83
2022-11-24T01:01:14.929Z,2.30
2022-11-24T01:03:42.477Z,1.65
2022-11-24T01:06:16.792Z,2.20
2022-11-24T01:08:44.637Z,1.98
2022-11-24T01:11:25.801Z,1.60
2022-11-24T01:13:57.659Z,1.88
2022-11-24T01:16:29.255Z,2.03
2022-11-24T01:18:56.351Z,2.15
2022-11-24T01:21:23.548Z,1.85
2022-11-24T01:23:50.644Z,1.70
2022-11-24T01:26:20.637Z,1.77
2022-11-24T01:28:48.034Z,2.35
2022-11-24T01:31:16.783Z,1.80
2022-11-24T01:33:43.705Z,2.10
2022-11-24T01:36:10.562Z,1.80
2022-11-24T01:38:37.305Z,2.38
2022-11-24T01:41:25.583Z,1.48
2022-11-24T01:43:54.603Z,1.65
2022-11-24T01:46:31.239Z,1.95
2022-11-24T01:49:11.668Z,1.63
2022-11-24T01:52:07.472Z,1.42
2022-11-24T01:54:39.511Z,1.88
2022-11-24T01:57:16.316Z,2.25
2022-11-24T01:59:46.400Z,2.13
2022-11-24T02:02:14.254Z,2.80
2022-11-24T02:04:41.831Z,1.70
2022-11-24T02:07:08.906Z,2.25
2022-11-24T02:10:04.658Z,1.83
2022-11-24T02:12:32.503Z,2.25
2022-11-24T02:14:59.734Z,2.10
2022-11-24T02:17:26.469Z,2.03
2022-11-24T02:19:59.851Z,1.75
2022-11-24T02:22:52.184Z,2.28
2022-11-24T02:25:55.635Z,1.95
2022-11-24T02:28:25.706Z,2.13
2022-11-24T02:30:53.363Z,2.22
2022-11-24T02:33:22.228Z,2.38
2022-11-24T02:35:48.976Z,2.67
2022-11-24T02:38:15.714Z,2.40
2022-11-24T02:40:48.033Z,2.10
2022-11-24T02:43:20.708Z,1.92
2022-11-24T02:45:47.814Z,2.05
2022-11-24T02:48:15.951Z,2.08
2022-11-24T02:50:42.846Z,2.25
2022-11-24T02:53:09.619Z,2.15
2022-11-24T02:55:36.375Z,1.80
2022-11-24T02:58:03.372Z,2.53
2022-11-24T03:00:30.311Z,1.88
2022-11-24T03:02:57.165Z,2.35
2022-11-24T03:05:23.975Z,2.50
2022-11-24T03:07:50.812Z,1.80
2022-11-24T03:10:17.606Z,2.00
2022-11-24T03:12:44.346Z,2.50
2022-11-24T03:15:11.288Z,3.08
2022-11-24T03:17:38.063Z,3.20
2022-11-24T03:20:05.586Z,2.53
2022-11-24T03:22:32.496Z,2.30
2022-11-24T03:24:59.275Z,2.75
2022-11-24T03:27:26.076Z,2.55
2022-11-24T03:29:52.800Z,2.28
2022-11-24T03:32:19.627Z,2.40
2022-11-24T03:34:46.349Z,2.08
2022-11-24T03:37:13.127Z,2.58
2022-11-24T03:39:39.843Z,2.47
2022-11-24T03:42:06.577Z,3.13
2022-11-24T03:44:33.576Z,2.35
2022-11-24T03:47:00.502Z,1.95
2022-11-24T03:49:27.239Z,2.05
2022-11-24T03:51:53.951Z,2.35
2022-11-24T03:54:20.730Z,2.30
2022-11-24T03:56:47.463Z,2.55
2022-11-24T03:59:14.178Z,2.60
2022-11-24T04:01:40.954Z,1.92
2022-11-24T04:04:10.539Z,2.45
2022-11-24T04:06:37.286Z,2.75
2022-11-24T04:09:04.599Z,3.22
2022-11-24T04:11:49.667Z,2.60
2022-11-24T04:14:16.558Z,2.85
2022-11-24T04:16:43.271Z,3.95
2022-11-24T04:19:10.004Z,3.03
2022-11-24T04:21:36.750Z,2.83
2022-11-24T04:24:03.680Z,4.60
2022-11-24T04:26:30.407Z,4.20
2022-11-24T04:28:57.149Z,2.67
2022-11-24T04:31:23.987Z,3.08
2022-11-24T04:33:50.724Z,2.95
2022-11-24T04:36:17.464Z,2.85
2022-11-24T04:39:25.368Z,3.78
2022-11-24T04:41:31.174Z,2.63
2022-11-24T04:43:57.883Z,3.05
2022-11-24T04:46:24.637Z,2.38
2022-11-24T04:48:51.377Z,2.53
2022-11-24T04:51:18.148Z,3.15
2022-11-24T04:53:44.960Z,2.65
2022-11-24T04:56:11.711Z,3.42
2022-11-24T04:58:38.477Z,2.97
2022-11-24T05:01:09.403Z,2.78
2022-11-24T05:03:37.074Z,2.47
2022-11-24T05:06:04.284Z,3.55
2022-11-24T05:08:31.015Z,2.95
2022-11-24T05:10:58.049Z,2.80
2022-11-24T05:13:24.933Z,3.35
2022-11-24T05:15:51.736Z,2.67
2022-11-24T05:18:18.521Z,2.97
2022-11-24T05:20:45.277Z,2.22
2022-11-24T05:23:12.469Z,2.85
2022-11-24T05:25:40.528Z,3.30
2022-11-24T05:28:10.422Z,3.10
2022-11-24T05:30:39.608Z,2.40
2022-11-24T05:33:18.834Z,3.10
2022-11-24T05:35:47.598Z,2.80
2022-11-24T05:38:15.431Z,2.70
2022-11-24T06:01:50.457Z,1.70
2022-11-24T06:04:17.314Z,1.60
2022-11-24T06:06:44.563Z,1.90
2022-11-24T06:09:11.257Z,2.08
2022-11-24T06:11:37.996Z,2.25
2022-11-24T06:14:10.797Z,1.67
2022-11-24T06:16:38.045Z,1.70
2022-11-24T06:19:04.882Z,2.22
2022-11-24T06:21:31.794Z,1.67
2022-11-24T06:23:58.822Z,1.77
2022-11-24T06:26:25.557Z,1.73
2022-11-24T06:28:52.290Z,1.35
2022-11-24T06:31:19.338Z,1.50
2022-11-24T06:33:46.825Z,1.45
2022-11-24T06:36:14.774Z,1.40
2022-11-24T06:38:41.827Z,1.10
2022-11-24T06:41:13.989Z,1.20
2022-11-24T06:46:07.972Z,0.98
2022-11-24T06:48:34.784Z,0.80
2022-11-24T06:51:05.234Z,0.93
2022-11-24T06:53:37.636Z,0.90
2022-11-24T06:56:16.407Z,0.70
2022-11-24T06:58:47.397Z,0.80
2022-11-24T07:01:20.673Z,0.50
2022-11-24T07:03:48.360Z,0.80
2022-11-24T07:06:16.836Z,0.82
2022-11-24T07:08:44.066Z,0.70
2022-11-24T07:11:17.786Z,0.85
2022-11-24T07:13:45.849Z,0.70
2022-11-24T07:16:21.799Z,0.70
2022-11-24T07:18:51.173Z,0.68
2022-11-24T07:21:19.679Z,0.40
2022-11-24T07:23:55.551Z,0.68
2022-11-24T07:26:23.742Z,0.70
2022-11-24T07:28:50.803Z,0.68
2022-11-24T07:31:20.987Z,0.70
2022-11-24T07:33:53.603Z,1.13
2022-11-24T07:36:20.865Z,0.80
2022-11-24T07:38:48.052Z,0.90
2022-11-24T07:41:17.843Z,0.75
2022-11-24T07:43:44.802Z,1.38
2022-11-24T07:46:16.929Z,1.20
2022-11-24T07:48:44.181Z,0.88
2022-11-24T07:51:11.160Z,0.98
2022-11-24T07:53:38.535Z,1.10
2022-11-24T07:56:06.802Z,0.95
2022-11-24T07:58:36.473Z,1.17
2022-11-24T08:01:15.156Z,1.17
2022-11-24T08:03:43.543Z,1.23
2022-11-24T08:06:30.531Z,1.25
2022-11-24T08:08:59.227Z,1.20
2022-11-24T08:11:27.385Z,1.30
2022-11-24T08:13:54.248Z,1.20
2022-11-24T08:16:21.182Z,1.23
2022-11-24T08:18:53.694Z,1.20
2022-11-24T08:21:23.033Z,1.38
2022-11-24T08:23:49.798Z,1.40
2022-11-24T08:26:19.109Z,1.50
2022-11-24T08:28:47.335Z,1.48
2022-11-24T08:31:19.105Z,1.38
2022-11-24T08:33:46.714Z,1.23
2022-11-24T08:36:17.561Z,1.45
2022-11-24T08:38:45.093Z,1.50
2022-11-24T08:41:15.036Z,2.03
2022-11-24T08:43:42.390Z,1.63
2022-11-24T08:46:16.962Z,1.75
2022-11-24T08:48:51.928Z,1.85
2022-11-24T08:51:22.707Z,2.10
2022-11-24T08:53:49.450Z,1.88
2022-11-24T08:56:16.208Z,1.80
2022-11-24T08:58:43.073Z,1.90
2022-11-24T09:01:16.002Z,1.40
2022-11-24T09:03:50.109Z,1.63
2022-11-24T09:06:25.239Z,2.40
2022-11-24T09:08:56.379Z,2.28
2022-11-24T09:11:24.774Z,2.00
2022-11-24T09:13:51.965Z,2.10
2022-11-24T09:16:22.723Z,1.83
2022-11-24T09:18:59.679Z,1.80
2022-11-24T09:21:27.919Z,2.22
2022-11-24T09:23:55.670Z,2.10
2022-11-24T09:26:27.089Z,2.00
2022-11-24T09:28:57.321Z,2.00
2022-11-24T09:31:29.087Z,1.92
2022-11-24T09:33:57.072Z,2.38
2022-11-24T09:36:24.560Z,1.50
2022-11-24T09:38:51.758Z,2.20
2022-11-24T09:41:18.874Z,1.90
2022-11-24T09:44:07.898Z,2.22
2022-11-24T09:47:31.183Z,2.25
2022-11-24T09:50:12.534Z,1.83
2022-11-24T09:53:00.994Z,1.90
2022-11-24T09:55:53.933Z,1.92
2022-11-24T09:58:45.873Z,1.90
2022-11-24T10:01:18.892Z,1.83
2022-11-24T10:03:50.776Z,2.60
2022-11-24T10:06:27.488Z,1.98
2022-11-24T10:09:27.173Z,2.13
2022-11-24T10:12:09.032Z,1.90
2022-11-24T10:15:02.221Z,1.90
2022-11-24T10:18:01.042Z,2.00
2022-11-24T10:20:31.042Z,2.47
2022-11-24T10:23:32.608Z,2.13
2022-11-24T10:26:04.556Z,1.70
2022-11-24T10:28:55.356Z,1.50
2022-11-24T10:31:31.199Z,1.92
2022-11-24T10:34:23.704Z,1.70
2022-11-24T10:40:55.942Z,1.95
2022-11-24T10:43:20.041Z,2.08
2022-11-24T10:45:47.443Z,1.77
2022-11-24T10:48:25.804Z,2.22
2022-11-24T10:51:21.062Z,1.67
2022-11-24T10:53:48.683Z,1.63
2022-11-24T10:56:15.411Z,1.77
2022-11-24T10:58:42.146Z,2.08
2022-11-24T11:01:14.923Z,1.80
2022-11-24T11:03:55.233Z,1.42
2022-11-24T11:06:24.419Z,1.63
2022-11-24T11:09:19.398Z,1.98
2022-11-24T11:11:49.400Z,1.80
2022-11-24T11:14:32.861Z,2.40
2022-11-24T11:16:59.722Z,2.10
2022-11-24T11:19:58.641Z,1.50
2022-11-24T11:22:30.892Z,1.92
2022-11-24T11:25:31.711Z,1.67
2022-11-24T11:28:34.760Z,1.67
2022-11-24T11:31:16.341Z,1.83
2022-11-24T11:34:22.059Z,1.70
2022-11-24T11:36:53.702Z,2.97
2022-11-24T11:39:36.291Z,2.03
2022-11-24T11:45:36.669Z,1.75
2022-11-24T11:48:03.414Z,1.92
2022-11-24T11:51:21.297Z,1.65
2022-11-24T11:53:47.091Z,2.13
2022-11-24T11:56:28.471Z,1.67
2022-11-24T11:59:32.206Z,1.90
2022-11-24T12:02:49.940Z,1.70
2022-11-24T12:05:47.709Z,2.00
2022-11-24T12:08:23.246Z,1.75
2022-11-24T12:11:15.903Z,2.20
2022-11-24T12:13:58.719Z,2.10
2022-11-24T12:17:09.597Z,1.90
2022-11-24T12:20:34.980Z,1.70
2022-11-24T12:23:43.502Z,2.00
2022-11-24T12:26:39.718Z,1.77
2022-11-24T12:29:48.100Z,1.73
2022-11-24T12:32:54.869Z,1.95
2022-11-24T12:36:03.473Z,1.80
2022-11-24T12:38:48.101Z,2.15
2022-11-24T12:41:41.808Z,2.30
2022-11-24T12:44:39.085Z,2.10
2022-11-24T12:47:35.282Z,1.98
2022-11-24T12:50:24.560Z,1.90
2022-11-24T12:53:28.352Z,1.95
2022-11-24T12:56:05.665Z,1.60
2022-11-24T12:58:58.603Z,1.92
2022-11-24T13:01:38.947Z,2.15
2022-11-24T13:04:49.583Z,1.30
2022-11-24T13:07:23.023Z,1.90
2022-11-24T13:10:40.489Z,1.52
2022-11-24T13:13:15.754Z,1.85
2022-11-24T13:16:28.427Z,1.80
2022-11-24T13:19:09.094Z,1.90
2022-11-24T13:21:50.030Z,1.80
2022-11-24T13:24:16.915Z,2.05
2022-11-24T13:26:50.326Z,2.60
2022-11-24T13:29:38.367Z,2.00
2022-11-24T13:32:05.293Z,1.73
2022-11-24T13:34:41.145Z,2.30
2022-11-24T13:37:31.486Z,1.67
2022-11-24T13:40:13.368Z,1.92
2022-11-24T13:43:07.525Z,1.92
2022-11-24T13:45:41.054Z,1.70
2022-11-24T13:48:20.348Z,1.85
2022-11-24T13:50:50.583Z,1.73
2022-11-24T13:53:32.029Z,2.03
2022-11-24T13:56:00.389Z,2.25
2022-11-24T13:58:45.089Z,1.85
2022-11-24T14:01:24.416Z,2.13
2022-11-24T14:04:34.435Z,1.90
2022-11-24T14:07:09.483Z,2.05
2022-11-24T14:09:44.956Z,1.67
2022-11-24T14:12:18.135Z,1.92
2022-11-24T14:14:48.177Z,1.80
2022-11-24T14:17:24.424Z,2.13
2022-11-24T14:19:56.711Z,1.77
2022-11-24T14:22:31.171Z,2.08
2022-11-24T14:25:00.749Z,2.08
2022-11-24T14:27:38.986Z,1.70
2022-11-24T14:30:13.488Z,1.40
2022-11-24T14:32:42.114Z,1.38
2022-11-24T14:35:49.600Z,1.70
2022-11-24T14:38:16.428Z,1.33
2022-11-24T14:40:51.814Z,1.40
2022-11-24T14:43:32.526Z,1.48
2022-11-24T14:46:04.612Z,1.60
2022-11-24T14:51:28.599Z,1.20
2022-11-24T14:54:02.154Z,1.52
2022-11-24T14:56:36.672Z,1.20
2022-11-24T14:59:20.963Z,1.55
2022-11-24T15:01:47.766Z,1.45
2022-11-24T15:05:01.092Z,1.85
2022-11-24T15:07:29.117Z,1.33
2022-11-24T15:10:01.756Z,1.48
2022-11-24T15:12:36.484Z,1.77
2022-11-24T15:15:16.168Z,1.52
2022-11-24T15:17:58.190Z,2.10
2022-11-24T15:20:32.709Z,2.00
2022-11-24T15:23:34.958Z,1.40
2022-11-24T15:26:01.584Z,1.23
2022-11-24T15:28:30.047Z,1.80
2022-11-24T15:31:01.037Z,1.73
2022-11-24T15:33:28.312Z,1.30
2022-11-24T15:35:55.469Z,1.80
2022-11-24T15:38:22.963Z,1.63
2022-11-24T15:40:52.745Z,1.45
2022-11-24T15:43:36.974Z,1.75
2022-11-24T15:46:05.405Z,1.50
2022-11-24T15:48:32.669Z,1.40
2022-11-24T15:51:02.627Z,1.50
2022-11-24T15:53:34.202Z,1.45
2022-11-24T15:56:04.125Z,1.42
2022-11-24T15:58:30.825Z,1.73
2022-11-24T16:00:57.692Z,1.70
2022-11-24T16:03:46.470Z,1.55
2022-11-24T16:06:24.059Z,1.40
2022-11-24T16:08:52.750Z,1.63
2022-11-24T16:11:19.504Z,2.00
2022-11-24T16:13:52.036Z,1.38
2022-11-24T16:16:20.322Z,1.50
2022-11-24T16:18:47.206Z,2.55
2022-11-24T16:21:14.100Z,1.70
2022-11-24T16:23:40.956Z,1.52
2022-11-24T16:26:08.005Z,1.73
2022-11-24T16:28:34.997Z,1.50
2022-11-24T16:31:01.871Z,1.40
2022-11-24T16:33:32.027Z,1.27
2022-11-24T16:35:58.771Z,0.90
2022-11-24T16:38:25.656Z,1.27
2022-11-24T16:40:54.591Z,1.40
2022-11-24T16:43:21.499Z,1.45
2022-11-24T16:46:19.010Z,1.25
2022-11-24T16:48:48.749Z,1.33
2022-11-24T16:51:17.445Z,1.38
2022-11-24T16:53:44.782Z,1.40
2022-11-24T16:56:12.000Z,2.40
2022-11-24T16:58:40.856Z,1.48
2022-11-24T17:01:10.799Z,2.13
2022-11-24T17:03:38.320Z,1.40
2022-11-24T17:06:08.113Z,2.42
2022-11-24T17:08:37.322Z,2.15
2022-11-24T17:11:22.594Z,1.20
2022-11-24T17:13:50.310Z,1.45
2022-11-24T17:16:20.542Z,1.25
2022-11-24T17:18:47.757Z,1.40
2022-11-24T17:21:20.771Z,1.77
2022-11-24T17:23:47.645Z,1.65
2022-11-24T17:26:17.413Z,2.33
2022-11-24T17:28:44.440Z,1.98
2022-11-24T17:31:22.556Z,1.48
2022-11-24T17:33:50.564Z,1.60
2022-11-24T17:36:17.397Z,1.60
2022-11-24T17:38:44.271Z,1.98
2022-11-24T17:41:11.563Z,1.42
2022-11-24T17:43:39.518Z,1.27
2022-11-24T17:46:06.947Z,1.58
2022-11-24T17:48:35.374Z,1.77
2022-11-24T17:51:05.902Z,1.65
2022-11-24T17:53:32.604Z,1.17
2022-11-24T17:56:00.762Z,1.75
2022-11-24T17:58:32.676Z,1.52
2022-11-24T18:01:00.076Z,2.00
2022-11-24T18:03:32.452Z,2.58
2022-11-24T18:06:07.944Z,1.80
2022-11-24T18:08:35.955Z,1.88
2022-11-24T18:11:05.191Z,3.17
2022-11-24T18:13:54.937Z,2.20
2022-11-24T18:16:19.210Z,2.15
2022-11-24T18:18:50.078Z,1.90
2022-11-24T18:21:18.183Z,2.00
2022-11-24T18:23:46.720Z,1.95
2022-11-24T18:26:15.908Z,2.13
2022-11-24T18:28:44.384Z,1.88
2022-11-24T18:31:14.780Z,2.33
2022-11-24T18:33:43.621Z,1.92
2022-11-24T18:36:14.763Z,2.55
2022-11-24T18:38:41.708Z,1.55
2022-11-24T18:41:09.594Z,2.53
2022-11-24T18:43:38.031Z,1.75
2022-11-24T18:46:07.247Z,2.40
2022-11-24T18:48:34.753Z,1.98
2022-11-24T18:51:01.624Z,2.42
2022-11-24T18:53:29.260Z,1.92
2022-11-24T18:56:01.511Z,3.10
2022-11-24T18:58:31.098Z,2.40
2022-11-24T19:01:16.310Z,2.45
2022-11-24T19:03:48.955Z,2.50
2022-11-24T19:06:32.595Z,2.63
2022-11-24T19:09:11.506Z,2.80
2022-11-24T19:11:41.315Z,2.97
2022-11-24T19:14:12.532Z,2.60
2022-11-24T19:16:40.705Z,2.28
2022-11-24T19:19:08.625Z,2.42
2022-11-24T19:21:38.680Z,2.95
2022-11-24T19:24:07.455Z,2.83
2022-11-24T19:26:37.537Z,2.90
2022-11-24T19:29:06.100Z,2.83
2022-11-24T19:31:34.135Z,2.58
2022-11-24T19:34:02.802Z,3.10
2022-11-24T19:36:29.755Z,3.20
2022-11-24T19:38:58.183Z,3.35
2022-11-24T19:41:28.412Z,3.53
2022-11-24T19:43:56.329Z,3.05
2022-11-24T19:46:27.894Z,3.40
2022-11-24T19:48:58.326Z,2.78
2022-11-24T19:51:35.251Z,3.53
2022-11-24T19:54:03.417Z,4.78
2022-11-24T19:56:34.718Z,3.63
2022-11-24T19:59:04.004Z,3.60
2022-11-24T20:01:34.442Z,3.15
2022-11-24T20:04:10.455Z,3.15
2022-11-24T20:06:44.171Z,3.38
2022-11-24T20:09:14.455Z,3.55
2022-11-24T20:11:41.745Z,3.47
2022-11-24T20:14:12.476Z,4.22
2022-11-24T20:16:39.718Z,4.50
2022-11-24T20:19:11.474Z,4.90
2022-11-24T20:21:39.857Z,3.15
2022-11-24T20:24:15.733Z,3.50
2022-11-24T20:26:47.377Z,3.80
2022-11-24T20:29:15.439Z,3.63
2022-11-24T20:31:49.177Z,3.22
2022-11-24T20:34:16.566Z,3.05
2022-11-24T20:36:45.885Z,3.05
2022-11-24T20:39:26.263Z,2.92
2022-11-24T20:41:54.891Z,3.20
2022-11-24T20:44:23.234Z,3.20
2022-11-24T20:46:50.320Z,3.47
2022-11-24T20:49:19.763Z,3.53
2022-11-24T20:51:49.164Z,3.17
2022-11-24T20:54:17.988Z,3.30
2022-11-24T20:56:46.400Z,3.70
2022-11-24T20:59:23.089Z,3.53
2022-11-24T21:01:51.672Z,3.80
2022-11-24T21:04:22.459Z,3.90
2022-11-24T21:06:50.305Z,4.68
2022-11-24T21:09:17.515Z,5.43
2022-11-24T21:11:44.791Z,4.38
2022-11-24T21:14:11.986Z,4.93
2022-11-24T21:16:41.236Z,4.85
2022-11-24T21:19:12.544Z,4.93
2022-11-24T21:21:42.366Z,4.75
2022-11-24T21:24:17.763Z,5.13
2022-11-24T21:26:47.663Z,4.50
2022-11-24T21:29:19.051Z,3.88
2022-11-24T21:31:45.801Z,3.70
2022-11-24T21:34:16.627Z,4.00
2022-11-24T21:36:44.935Z,3.85
2022-11-24T21:39:13.905Z,4.28
2022-11-24T21:41:40.982Z,4.28
2022-11-24T21:44:07.781Z,4.00
2022-11-24T21:46:43.558Z,3.67
2022-11-24T21:49:13.231Z,3.33
2022-11-24T21:51:39.981Z,4.30
2022-11-24T21:54:06.867Z,3.75
2022-11-24T21:56:33.585Z,3.85
2022-11-24T21:59:00.302Z,3.65
2022-11-24T22:01:28.661Z,3.60
2022-11-24T22:03:56.089Z,2.88
2022-11-24T22:06:23.455Z,3.53
2022-11-24T22:08:50.259Z,2.72
2022-11-24T22:11:20.701Z,3.20
2022-11-24T22:13:47.847Z,2.35
2022-11-24T22:16:18.745Z,2.92
2022-11-24T22:18:46.809Z,2.63
2022-11-24T22:21:20.351Z,2.58
2022-11-24T22:23:52.461Z,3.63
2022-11-24T22:28:48.310Z,3.13
2022-11-24T22:31:19.732Z,2.72
2022-11-24T22:33:46.971Z,2.47
2022-11-24T22:36:15.705Z,2.40
2022-11-24T22:38:43.294Z,2.63
2022-11-24T22:41:16.181Z,2.47
2022-11-24T22:43:44.747Z,2.90
2022-11-24T22:46:18.448Z,2.40
2022-11-24T22:48:47.334Z,2.28
2022-11-24T22:51:19.747Z,2.50
2022-11-24T22:53:52.457Z,2.10
2022-11-24T22:56:20.057Z,2.20
2022-11-24T22:58:47.652Z,2.30
2022-11-24T23:01:22.553Z,2.42
2022-11-24T23:03:50.915Z,2.15
2022-11-24T23:06:23.955Z,2.40
2022-11-24T23:08:51.843Z,2.42
2022-11-24T23:11:32.722Z,2.30
2022-11-24T23:14:04.134Z,2.42
2022-11-24T23:16:31.031Z,3.28
2022-11-24T23:18:58.229Z,2.22
2022-11-24T23:21:31.167Z,2.30
2022-11-24T23:24:03.556Z,2.88
2022-11-24T23:26:33.817Z,2.35
2022-11-24T23:29:00.524Z,2.63
2022-11-24T23:31:31.481Z,4.05
2022-11-24T23:34:00.972Z,2.50
2022-11-24T23:36:29.890Z,2.42
2022-11-24T23:39:01.861Z,2.65
2022-11-24T23:41:31.366Z,2.58
2022-11-24T23:43:58.243Z,2.15
2022-11-24T23:46:27.101Z,2.75
2022-11-24T23:48:55.112Z,2.85
2022-11-24T23:51:29.378Z,2.22
2022-11-24T23:53:57.424Z,2.55
2022-11-24T23:56:33.072Z,2.78
2022-11-24T23:59:02.032Z,2.40
